Woolavington, United Kingdom
Current Conditions -  °F | °C
As of 10:37 AM on Thursday 27 Nov 2014 (Local Time) from EGDY Reporting Station
Haze Haze  
Wind Chill: 48°   Ceiling: Unl
Heat Index: 48°   Visibility: 2.8mi
Dew Point: 46°   Wind: 2mph
Humidity: 93%   Direction: 110°ESE
Pressure: 29.59"   Gusts: NA
Location:  51.16°N, 2.94°W
Report Text: EGDY 271037Z 11002KT 4500 HZ FEW002 09/08 Q1002 GRN BECMG 8000 HZ SCT040 BLU
Loading
Personal Weather Stations






























Interactive Weather Map New forecast layout! Learn more

10-Day Weather Forecast

Advertisements
Track Severe Weather on mobile